De Kalb, MO (64440)

6:58 AM CDT on August 31, 2015 (GMT -0500)
APRSWXNET | | Change Station
CLOSE
Current Station
Personal Weather Station
Location: Rushville, MO
Elevation: 794 ft
Nearby Weather Stations

Elev 794 ft 39.66 °N, 95.01 °W | Updated 22 minutes ago

Mostly Cloudy
Mostly Cloudy
65 °F
Feels Like 65 °F
N
0
Wind Variable Wind from WSW
Gusts 0.0 mph

Today
High -- | Low -- °F
--% Chance of Precip.
Yesterday
High -- | Low -- °F
Precip. -- in
6:46 AM 7:52 PM
Waning Gibbous, 96% visible
Pressure 29.97 in
Visibility 0.8 miles
Clouds
Dew Point 64 °F
Humidity 95%
Rainfall in
Snow Depth Not available.
UV Not available.
Pollen 9.90 out of 12
Air Quality Not available.
Flu Activity Not available.
METAR KSTJ 311148Z 00000KT 3/4SM R35/1800VP6000FT BR VV012 18/17 A2997 RMK AO2 VIS 1/2V3
Pressure 29.97 in
Visibility 0.8 miles
Clouds
Dew Point 64 °F
Humidity 95%
Rainfall in
Snow Depth Not available.
UV Not available.
Pollen 9.90 out of 12
Air Quality Not available.
Flu Activity Not available.
METAR KSTJ 311148Z 00000KT 3/4SM R35/1800VP6000FT BR VV012 18/17 A2997 RMK AO2 VIS 1/2V3

10-Day Weather Forecast

×

Almanac

Astronomy

Aug. 31, 2015 Rise Set
Actual Time
Civil Twilight
Nautical Twilight
Astronomical Twilight
Moon
Length of Visible Light
Length of Day
Tomorrow will be .
, % of the Moon is Illuminated

Today's Extremes

State Highs State Lows

Community

WunderPhotos

Upload Photos

1,851,219 photos uploaded!

WunderBlogs® & News

Nearby

Air Quality

  Air Quality AQ Index Pollutant
Not available.

Snow Depth

Station Depth Elevation

Earthquake Activity

City Distance Mag. Time & Date
Minimum magnitude displayed is 2.5.

Coastal Water Temperatures

Place Temperature

Stations

Nearby Weather Stations

Station Location Temp. Windchill Dew Point Humidity Wind Precip. Elev Updated Type